Archival Weather

Southern Wisconsin Rgnl

Janesville, Wisconsin (KJVL)

Report from: Wednesday, December 6, 2023 12:35 AM CST
Current time: Sunday, February 25, 2024 3:10 PM CST

Current weather – Weather history – Daily summaries
Weather forecast

Temperature2.0°C (35.6°F)
Wind chill-1.2°C (29.9°F)
Dew point-2.0°C (28.4°F)
Winds 6 kts (3.1 m/s, 6.9 mph) West-Northwest (290°)
Visibility10 mi. (16.1 km)
Clouds Ceiling: Overcast 3,100 ft. (945 m)
Altimeter30.27 in.Hg (1025 mB)
Relative humidity75 %
Density altitude-1,901 ft. (-580 m)
Remarks Fully automated report
Automated weather observing station with precipitation discriminator
Flight conditions Visual Meteorological Conditions
Raw dataKJVL 060635Z AUTO 29006KT 10SM OVC031 02/M02 A3027 RMK AO2
An error has occurred. This application may no longer respond until reloaded. Reload 🗙